createdAt,value
2017-03-24T00:00:34.106Z,67.4
2017-03-24T00:01:35.902Z,67.5
2017-03-24T00:02:37.706Z,67.5
2017-03-24T00:03:39.507Z,67.6
2017-03-24T00:04:41.896Z,67.6
2017-03-24T00:05:43.694Z,67.6
2017-03-24T00:06:45.827Z,67.6
2017-03-24T00:07:47.970Z,67.6
2017-03-24T00:08:49.780Z,67.7
2017-03-24T00:09:52.252Z,67.8
2017-03-24T00:10:54.060Z,67.7
2017-03-24T00:11:56.210Z,67.6
2017-03-24T00:12:58.373Z,67.6
2017-03-24T00:14:00.509Z,67.8
2017-03-24T00:15:02.311Z,67.8
2017-03-24T00:16:04.115Z,67.9
2017-03-24T00:17:05.917Z,67.9
2017-03-24T00:18:07.728Z,67.9
2017-03-24T00:19:10.212Z,67.9
2017-03-24T00:20:12.022Z,68
2017-03-24T00:21:14.389Z,68
2017-03-24T00:22:16.530Z,67.9
2017-03-24T00:23:19.001Z,67.9
2017-03-24T00:24:21.060Z,67.9
2017-03-24T00:25:23.545Z,67.9
2017-03-24T00:26:25.344Z,67.9
2017-03-24T00:27:27.195Z,67.9
2017-03-24T00:28:30.154Z,67.9
2017-03-24T00:29:31.950Z,67.9
2017-03-24T00:30:33.758Z,67.9
2017-03-24T00:31:35.897Z,67.9
2017-03-24T00:32:38.033Z,67.9
2017-03-24T00:33:39.873Z,67.9
2017-03-24T00:34:42.369Z,67.8
2017-03-24T00:35:44.171Z,67.8
2017-03-24T00:36:45.975Z,67.9
2017-03-24T00:37:47.770Z,67.9
2017-03-24T00:38:49.908Z,67.9
2017-03-24T00:39:52.396Z,67.9
2017-03-24T00:40:54.921Z,68
2017-03-24T00:41:56.724Z,68.1
2017-03-24T00:42:58.559Z,68
2017-03-24T00:44:00.697Z,68
2017-03-24T00:45:02.490Z,68
2017-03-24T00:46:04.296Z,68
2017-03-24T00:47:06.434Z,68
2017-03-24T00:48:09.150Z,68
2017-03-24T00:49:11.285Z,68.1
2017-03-24T00:50:13.084Z,68.1
2017-03-24T00:51:14.879Z,68
2017-03-24T00:52:16.682Z,68.1
2017-03-24T00:53:18.484Z,68.2
2017-03-24T00:54:20.285Z,68.2
2017-03-24T00:55:22.425Z,68.2
2017-03-24T00:56:24.266Z,68.3
2017-03-24T00:57:26.077Z,68.3
2017-03-24T00:58:27.886Z,68.2
2017-03-24T00:59:30.011Z,68.3
2017-03-24T01:00:31.821Z,68.3
2017-03-24T01:01:33.954Z,68.3
2017-03-24T01:02:35.770Z,68.3
2017-03-24T01:03:37.572Z,68.4
2017-03-24T01:04:39.383Z,68.3
2017-03-24T01:05:41.185Z,68.3
2017-03-24T01:06:43.328Z,68.3
2017-03-24T01:07:45.124Z,68.3
2017-03-24T01:08:46.929Z,68.3
2017-03-24T01:09:49.414Z,68.3
2017-03-24T01:10:51.223Z,68.3
2017-03-24T01:11:53.025Z,68.3
2017-03-24T01:12:54.823Z,68.3
2017-03-24T01:13:56.630Z,68.3
2017-03-24T01:14:58.765Z,68.3
2017-03-24T01:16:00.572Z,68.3
2017-03-24T01:17:02.715Z,68.3
2017-03-24T01:18:04.860Z,68.3
2017-03-24T01:19:06.996Z,68.3
2017-03-24T01:20:09.133Z,68.2
2017-03-24T01:21:10.941Z,68.2
2017-03-24T01:22:13.073Z,68.3
2017-03-24T01:23:14.875Z,68.3
2017-03-24T01:24:17.005Z,68.3
2017-03-24T01:25:18.813Z,68.2
2017-03-24T01:26:20.612Z,68.3
2017-03-24T01:27:22.418Z,68.2
2017-03-24T01:28:24.217Z,68.3
2017-03-24T01:29:26.019Z,68.3
2017-03-24T01:30:27.817Z,68.4
2017-03-24T01:31:29.625Z,68.4
2017-03-24T01:32:31.770Z,68.4
2017-03-24T01:33:33.566Z,68.3
2017-03-24T01:34:35.369Z,68.4
2017-03-24T01:35:37.210Z,68.4
2017-03-24T01:36:39.003Z,68.4
2017-03-24T01:37:40.801Z,68.5
2017-03-24T01:38:42.988Z,68.3
2017-03-24T01:39:44.785Z,68.4
2017-03-24T01:40:46.924Z,68.4
2017-03-24T01:41:48.719Z,68.3
2017-03-24T01:42:50.525Z,68.4
2017-03-24T01:43:53.057Z,68.2
2017-03-24T01:44:55.206Z,68.4
2017-03-24T01:45:57.352Z,68.3
2017-03-24T01:46:59.149Z,68.3
2017-03-24T01:48:00.963Z,68.4
2017-03-24T01:49:02.756Z,68.5
2017-03-24T01:50:04.566Z,68.5
2017-03-24T01:51:06.374Z,68.4
2017-03-24T01:52:08.172Z,68.4
2017-03-24T01:53:09.976Z,68.4
2017-03-24T01:54:12.452Z,68.5
2017-03-24T01:55:14.252Z,68.4
2017-03-24T01:56:16.056Z,68.5
2017-03-24T01:57:17.862Z,68.5
2017-03-24T01:58:19.719Z,68.5
2017-03-24T01:59:22.188Z,68.6
2017-03-24T02:00:24.664Z,68.5
2017-03-24T02:01:26.459Z,68.5
2017-03-24T02:02:28.270Z,68.5
2017-03-24T02:03:30.402Z,68.6
2017-03-24T02:04:32.205Z,68.6
2017-03-24T02:05:34.006Z,68.5
2017-03-24T02:06:35.802Z,68.6
2017-03-24T02:07:37.961Z,68.6
2017-03-24T02:08:40.159Z,68.5
2017-03-24T02:09:41.955Z,68.6
2017-03-24T02:10:43.759Z,68.7
2017-03-24T02:11:45.554Z,68.6
2017-03-24T02:12:47.699Z,68.7
2017-03-24T02:13:49.498Z,68.8
2017-03-24T02:14:51.307Z,68.8
2017-03-24T02:15:53.793Z,68.8
2017-03-24T02:16:55.595Z,68.8
2017-03-24T02:17:57.736Z,68.8
2017-03-24T02:18:59.877Z,68.8
2017-03-24T02:20:02.014Z,68.8
2017-03-24T02:21:04.159Z,68.8
2017-03-24T02:22:06.671Z,68.8
2017-03-24T02:23:08.469Z,68.9
2017-03-24T02:24:10.609Z,68.9
2017-03-24T02:25:12.756Z,68.9
2017-03-24T02:26:14.888Z,68.9
2017-03-24T02:27:16.692Z,68.9
2017-03-24T02:28:18.492Z,68.8
2017-03-24T02:29:20.629Z,68.9
2017-03-24T02:30:22.788Z,68.9
2017-03-24T02:31:24.938Z,68.8
2017-03-24T02:32:26.736Z,68.9
2017-03-24T02:33:28.540Z,68.8
2017-03-24T02:34:30.342Z,68.8
2017-03-24T02:35:32.137Z,68.8
2017-03-24T02:36:33.931Z,68.8
2017-03-24T02:37:35.744Z,68.8
2017-03-24T02:38:37.550Z,68.9
2017-03-24T02:39:39.683Z,69
2017-03-24T02:40:41.489Z,69
2017-03-24T02:41:43.616Z,68.9
2017-03-24T02:42:45.410Z,68.9
2017-03-24T02:43:47.235Z,68.9
2017-03-24T02:44:49.368Z,68.9
2017-03-24T02:45:51.512Z,68.9
2017-03-24T02:46:53.651Z,68.8
2017-03-24T02:47:55.453Z,68.9
2017-03-24T02:48:57.259Z,68.9
2017-03-24T02:49:59.396Z,68.9
2017-03-24T02:51:01.538Z,69
2017-03-24T02:52:03.333Z,68.9
2017-03-24T02:53:05.132Z,68.9
2017-03-24T02:54:06.930Z,69
2017-03-24T02:55:08.734Z,69.1
2017-03-24T02:56:10.536Z,69.1
2017-03-24T02:57:12.356Z,69
2017-03-24T02:58:14.489Z,69
2017-03-24T02:59:16.635Z,69.1
2017-03-24T03:00:18.773Z,69.1
2017-03-24T03:01:20.577Z,69
2017-03-24T03:02:22.376Z,69
2017-03-24T03:03:24.174Z,69
2017-03-24T03:04:26.323Z,68.9
2017-03-24T03:05:28.129Z,68.9
2017-03-24T03:06:29.935Z,68.9
2017-03-24T03:07:32.070Z,68.9
2017-03-24T03:08:33.874Z,68.9
2017-03-24T03:09:36.379Z,68.9
2017-03-24T03:10:38.177Z,68.9
2017-03-24T03:11:39.981Z,68.9
2017-03-24T03:12:41.779Z,68.9
2017-03-24T03:13:43.578Z,68.9
2017-03-24T03:14:45.715Z,68.8
2017-03-24T03:15:47.522Z,68.9
2017-03-24T03:16:49.316Z,68.8
2017-03-24T03:17:51.118Z,68.9
2017-03-24T03:18:53.262Z,68.9
2017-03-24T03:19:55.067Z,68.9
2017-03-24T03:20:57.210Z,68.8
2017-03-24T03:21:59.019Z,68.9
2017-03-24T03:23:00.814Z,69
2017-03-24T03:24:02.625Z,69.1
2017-03-24T03:25:04.425Z,69.1
2017-03-24T03:26:06.222Z,68.8
2017-03-24T03:27:08.018Z,69
2017-03-24T03:28:09.817Z,69
2017-03-24T03:29:11.954Z,69
2017-03-24T03:30:13.756Z,69
2017-03-24T03:31:15.560Z,69
2017-03-24T03:32:17.375Z,69
2017-03-24T03:33:19.507Z,69
2017-03-24T03:34:21.652Z,69
2017-03-24T03:35:23.789Z,69.1
2017-03-24T03:36:25.928Z,69
2017-03-24T03:37:28.065Z,69
2017-03-24T03:38:30.212Z,69.1
2017-03-24T03:39:32.031Z,69
2017-03-24T03:40:33.841Z,69
2017-03-24T03:41:35.631Z,69
2017-03-24T03:42:37.770Z,69
2017-03-24T03:43:39.910Z,69
2017-03-24T03:44:42.053Z,69
2017-03-24T03:45:44.192Z,69
2017-03-24T03:46:46.334Z,69
2017-03-24T03:47:48.131Z,69.1
2017-03-24T03:48:50.621Z,69
2017-03-24T03:49:52.419Z,69
2017-03-24T03:50:54.218Z,69
2017-03-24T03:51:56.393Z,69.1
2017-03-24T03:52:58.550Z,69
2017-03-24T03:54:00.682Z,69
2017-03-24T03:55:02.487Z,69.1
2017-03-24T03:56:04.618Z,69.1
2017-03-24T03:57:06.750Z,69.1
2017-03-24T03:58:08.898Z,69.1
2017-03-24T03:59:11.033Z,69.2
2017-03-24T04:00:12.878Z,69.2
2017-03-24T04:01:14.683Z,69.2
2017-03-24T04:02:16.486Z,69.3
2017-03-24T04:03:18.638Z,69.2
2017-03-24T04:04:20.434Z,69.3
2017-03-24T04:05:22.236Z,69.2
2017-03-24T04:06:24.377Z,69.2
2017-03-24T04:07:26.511Z,69.3
2017-03-24T04:08:28.317Z,69.3
2017-03-24T04:09:30.458Z,69.2
2017-03-24T04:10:32.266Z,69.3
2017-03-24T04:11:34.071Z,69.4
2017-03-24T04:12:36.024Z,69.4
2017-03-24T04:13:38.848Z,69.3
2017-03-24T04:14:40.649Z,69.3
2017-03-24T04:15:42.786Z,69.3
2017-03-24T04:16:44.587Z,69.4
2017-03-24T04:17:46.729Z,69.4
2017-03-24T04:18:48.879Z,69.3
2017-03-24T04:19:50.690Z,69.4
2017-03-24T04:20:53.189Z,69.4
2017-03-24T04:21:54.988Z,69.4
2017-03-24T04:22:56.778Z,69.4
2017-03-24T04:23:58.929Z,69.4
2017-03-24T04:25:00.721Z,69.4
2017-03-24T04:26:02.528Z,69.5
2017-03-24T04:27:04.327Z,69.4
2017-03-24T04:28:06.460Z,69.4
2017-03-24T04:29:08.605Z,69.4
2017-03-24T04:30:10.399Z,69.5
2017-03-24T04:31:12.562Z,69.5
2017-03-24T04:32:14.692Z,69.5
2017-03-24T04:33:16.837Z,69.5
2017-03-24T04:34:18.980Z,69.5
2017-03-24T04:35:21.123Z,69.4
2017-03-24T04:36:22.924Z,69.5
2017-03-24T04:37:24.721Z,69.4
2017-03-24T04:38:26.859Z,69.4
2017-03-24T04:39:29.009Z,69.5
2017-03-24T04:40:30.808Z,69.4
2017-03-24T04:41:32.611Z,69.4
2017-03-24T04:42:34.745Z,69.4
2017-03-24T04:43:36.901Z,69.4
2017-03-24T04:44:38.701Z,69.5
2017-03-24T04:45:40.498Z,69.5
2017-03-24T04:46:42.302Z,69.5
2017-03-24T04:47:44.095Z,69.5
2017-03-24T04:48:45.898Z,69.5
2017-03-24T04:49:47.699Z,69.4
2017-03-24T04:50:49.490Z,69.4
2017-03-24T04:51:51.293Z,69.4
2017-03-24T04:52:53.094Z,69.4
2017-03-24T04:53:55.286Z,69.4
2017-03-24T04:54:57.776Z,69.4
2017-03-24T04:55:59.570Z,69.4
2017-03-24T04:57:01.377Z,69.4
2017-03-24T04:58:03.527Z,69.4
2017-03-24T04:59:05.676Z,69.5
2017-03-24T05:00:07.517Z,69.4
2017-03-24T05:01:09.315Z,69.5
2017-03-24T05:02:11.121Z,69.5
2017-03-24T05:03:12.919Z,69.4
2017-03-24T05:04:15.108Z,69.5
2017-03-24T05:05:16.944Z,69.5
2017-03-24T05:06:18.735Z,69.5
2017-03-24T05:07:20.549Z,69.5
2017-03-24T05:08:23.030Z,69.5
2017-03-24T05:09:25.177Z,69.5
2017-03-24T05:10:27.317Z,69.5
2017-03-24T05:11:29.111Z,69.6
2017-03-24T05:12:30.913Z,69.6
2017-03-24T05:13:33.454Z,69.6
2017-03-24T05:14:35.601Z,69.6
2017-03-24T05:15:37.403Z,69.6
2017-03-24T05:16:39.540Z,69.6
2017-03-24T05:17:41.677Z,69.6
2017-03-24T05:18:43.808Z,69.6
2017-03-24T05:19:45.653Z,69.6
2017-03-24T05:20:47.461Z,69.6
2017-03-24T05:21:49.261Z,69.6
2017-03-24T05:22:51.065Z,69.6
2017-03-24T05:23:53.213Z,69.5
2017-03-24T05:24:55.021Z,69.5
2017-03-24T05:25:58.167Z,69.5
2017-03-24T05:26:59.973Z,69.5
2017-03-24T05:28:01.758Z,69.5
2017-03-24T05:29:03.902Z,69.6
2017-03-24T05:30:06.425Z,69.5
2017-03-24T05:31:08.232Z,69.5
2017-03-24T05:32:10.037Z,69.6
2017-03-24T05:33:12.185Z,69.6
2017-03-24T05:34:13.992Z,69.6
2017-03-24T05:35:16.476Z,69.6
2017-03-24T05:36:18.285Z,69.6
2017-03-24T05:37:20.415Z,69.6
2017-03-24T05:38:22.221Z,69.6
2017-03-24T05:39:24.755Z,69.7
2017-03-24T05:40:26.561Z,69.7
2017-03-24T05:41:28.360Z,69.7
2017-03-24T05:42:30.154Z,69.7
2017-03-24T05:43:31.955Z,69.7
2017-03-24T05:44:34.091Z,69.6
2017-03-24T05:45:35.898Z,69.6
2017-03-24T05:46:37.699Z,69.6
2017-03-24T05:47:39.498Z,69.6
2017-03-24T05:48:41.637Z,69.6
2017-03-24T05:49:43.773Z,69.6
2017-03-24T05:50:45.573Z,69.7
2017-03-24T05:51:47.381Z,69.7
2017-03-24T05:52:49.177Z,69.7
2017-03-24T05:53:51.008Z,69.7
2017-03-24T05:54:52.820Z,69.7
2017-03-24T05:55:55.056Z,69.7
2017-03-24T05:56:56.925Z,69.7
2017-03-24T05:57:58.776Z,69.7
2017-03-24T05:59:01.322Z,69.7
2017-03-24T06:00:03.136Z,69.8
2017-03-24T06:01:04.939Z,69.8
2017-03-24T06:02:06.751Z,69.8
2017-03-24T06:03:08.557Z,69.9
2017-03-24T06:04:10.702Z,69.9
2017-03-24T06:05:12.496Z,69.9
2017-03-24T06:06:14.362Z,69.9
2017-03-24T06:07:16.176Z,69.7
2017-03-24T06:08:17.990Z,69.9
2017-03-24T06:09:19.795Z,69.9
2017-03-24T06:10:22.270Z,69.8
2017-03-24T06:11:24.083Z,69.8
2017-03-24T06:12:25.886Z,69.7
2017-03-24T06:13:28.362Z,69.7
2017-03-24T06:14:30.670Z,69.6
2017-03-24T06:15:32.475Z,69.6
2017-03-24T06:16:34.701Z,69.6
2017-03-24T06:17:36.534Z,69.6
2017-03-24T06:18:38.416Z,69.5
2017-03-24T06:19:40.229Z,69.6
2017-03-24T06:20:42.036Z,69.5
2017-03-24T06:22:06.516Z,69.5
2017-03-24T06:23:10.400Z,69.5
2017-03-24T06:24:12.562Z,69.5
2017-03-24T06:25:14.366Z,69.5
2017-03-24T06:26:16.165Z,69.4
2017-03-24T06:27:18.129Z,69.4
2017-03-24T06:28:20.281Z,69.4
2017-03-24T06:29:22.101Z,69.4
2017-03-24T06:30:23.910Z,69.4
2017-03-24T06:31:25.856Z,69.4
2017-03-24T06:32:28.348Z,69.4
2017-03-24T06:33:30.488Z,69.3
2017-03-24T06:34:32.301Z,69.4
2017-03-24T06:35:34.103Z,69.4
2017-03-24T06:36:36.254Z,69.3
2017-03-24T06:37:38.481Z,69.4
2017-03-24T06:38:40.631Z,69.4
2017-03-24T06:39:43.173Z,69.2
2017-03-24T06:40:44.990Z,69.3
2017-03-24T06:41:47.129Z,69.3
2017-03-24T06:42:48.988Z,69.2
2017-03-24T06:43:51.353Z,69.2
2017-03-24T06:44:53.163Z,69.2
2017-03-24T06:45:55.754Z,69.2
2017-03-24T06:46:57.562Z,69.1
2017-03-24T06:47:59.714Z,69.2
2017-03-24T06:49:01.711Z,69.2
2017-03-24T06:50:03.524Z,69.1
2017-03-24T06:51:05.324Z,69.1
2017-03-24T06:52:07.151Z,69.2
2017-03-24T06:53:08.943Z,69.2
2017-03-24T06:54:11.135Z,69.1
2017-03-24T06:55:12.944Z,69.1
2017-03-24T06:56:14.763Z,69.2
2017-03-24T06:57:16.896Z,69.1
2017-03-24T06:58:18.934Z,69.1
2017-03-24T06:59:21.778Z,69.1
2017-03-24T07:00:23.589Z,69.2
2017-03-24T07:01:25.395Z,69.2
2017-03-24T07:02:27.204Z,69.3
2017-03-24T07:03:31.004Z,69.2
2017-03-24T07:04:33.484Z,69.2
2017-03-24T07:05:35.289Z,69.1
2017-03-24T07:06:37.151Z,69.1
2017-03-24T07:07:39.285Z,69.1
2017-03-24T07:08:41.444Z,69.2
2017-03-24T07:09:44.121Z,69.2
2017-03-24T07:10:45.925Z,69
2017-03-24T07:11:47.760Z,69.2
2017-03-24T07:12:49.568Z,69
2017-03-24T07:13:51.370Z,69.2
2017-03-24T07:14:53.508Z,69.2
2017-03-24T07:15:55.453Z,69.2
2017-03-24T07:16:57.606Z,69.2
2017-03-24T07:17:59.422Z,69.3
2017-03-24T07:19:01.480Z,69.3
2017-03-24T07:20:03.624Z,69.3
2017-03-24T07:21:05.433Z,69.2
2017-03-24T07:22:07.514Z,69.3
2017-03-24T07:23:09.673Z,69.2
2017-03-24T07:24:11.493Z,69.1
2017-03-24T07:25:14.004Z,69.2
2017-03-24T07:26:15.818Z,69.1
2017-03-24T07:27:17.966Z,69.2
2017-03-24T07:28:19.788Z,69.2
2017-03-24T07:29:21.617Z,69.1
2017-03-24T07:30:23.532Z,69.2
2017-03-24T07:31:25.346Z,69.2
2017-03-24T07:32:27.503Z,69.2
2017-03-24T07:33:29.335Z,69.2
2017-03-24T07:34:31.136Z,69.1
2017-03-24T07:35:33.312Z,69
2017-03-24T07:36:35.568Z,68.9
2017-03-24T07:37:37.463Z,68.8
2017-03-24T07:38:39.315Z,68.9
2017-03-24T07:39:41.137Z,68.9
2017-03-24T07:40:42.983Z,68.9
2017-03-24T07:41:45.469Z,69
2017-03-24T07:42:47.319Z,69
2017-03-24T07:43:49.140Z,68.9
2017-03-24T07:44:52.124Z,69
2017-03-24T07:45:54.692Z,68.8
2017-03-24T07:46:56.772Z,68.9
2017-03-24T07:47:58.583Z,68.9
2017-03-24T07:49:00.735Z,67.9
2017-03-24T07:50:02.874Z,67.9
2017-03-24T07:51:04.954Z,67.9
2017-03-24T07:52:06.805Z,67.9
2017-03-24T07:53:08.954Z,67.7
2017-03-24T07:54:11.349Z,67.7
2017-03-24T07:55:13.604Z,67.7
2017-03-24T07:56:15.414Z,67.8
2017-03-24T07:57:17.220Z,67.8
2017-03-24T07:58:19.078Z,67.7
2017-03-24T07:59:21.089Z,67.8
2017-03-24T08:00:22.919Z,67.9
2017-03-24T08:01:24.726Z,67.8
2017-03-24T08:02:26.536Z,67.9
2017-03-24T08:03:28.729Z,67.9
2017-03-24T08:04:30.564Z,67.9
2017-03-24T08:05:32.360Z,67.7
2017-03-24T08:06:34.174Z,67.6
2017-03-24T08:07:36.005Z,67.6
2017-03-24T08:08:37.826Z,67.7
2017-03-24T08:09:39.814Z,67.7
2017-03-24T08:10:41.641Z,67.6
2017-03-24T08:11:43.447Z,67.6
2017-03-24T08:12:45.249Z,67.4
2017-03-24T08:13:47.046Z,67.5
2017-03-24T08:14:49.103Z,67.4
2017-03-24T08:15:50.943Z,67.2
2017-03-24T08:16:52.820Z,67.2
2017-03-24T08:17:54.686Z,67.3
2017-03-24T08:18:56.511Z,67.3
2017-03-24T08:19:58.325Z,67.4
2017-03-24T08:21:00.133Z,67.2
2017-03-24T08:22:01.942Z,67.1
2017-03-24T08:23:04.028Z,67.2
2017-03-24T08:24:05.839Z,67.2
2017-03-24T08:25:07.718Z,67.2
2017-03-24T08:26:09.518Z,67.2
2017-03-24T08:27:11.336Z,67.6
2017-03-24T08:28:13.169Z,68.3
2017-03-24T08:29:15.179Z,69
2017-03-24T08:30:16.986Z,69.7
2017-03-24T08:31:18.853Z,70.4
2017-03-24T08:32:20.660Z,71
2017-03-24T08:33:22.803Z,71.4
2017-03-24T08:34:24.616Z,71.7
2017-03-24T08:35:26.460Z,72
2017-03-24T08:36:28.268Z,72.3
2017-03-24T08:37:30.080Z,72.5
2017-03-24T08:38:32.020Z,72.8
2017-03-24T08:39:33.851Z,72.9
2017-03-24T08:40:35.719Z,72.9
2017-03-24T08:41:37.560Z,73
2017-03-24T08:42:39.388Z,73.1
2017-03-24T08:43:41.191Z,72.9
2017-03-24T08:44:43.288Z,72.8
2017-03-24T08:45:45.107Z,72.7
2017-03-24T08:46:46.922Z,72.4
2017-03-24T08:47:48.751Z,72.2
2017-03-24T08:48:50.819Z,72
2017-03-24T08:49:52.653Z,71.7
2017-03-24T08:50:54.460Z,71.4
2017-03-24T08:51:56.291Z,71.1
2017-03-24T08:52:58.110Z,70.8
2017-03-24T08:54:00.165Z,70.5
2017-03-24T08:55:01.999Z,70.5
2017-03-24T08:56:03.819Z,70.3
2017-03-24T08:57:05.795Z,70
2017-03-24T08:58:07.629Z,69.9
2017-03-24T08:59:09.454Z,69.8
2017-03-24T09:00:11.337Z,69.6
2017-03-24T09:01:13.156Z,69.6
2017-03-24T09:02:15.043Z,69.3
2017-03-24T09:03:16.865Z,69.1
2017-03-24T09:04:19.094Z,68.9
2017-03-24T09:05:20.924Z,68.7
2017-03-24T09:06:22.750Z,68.3
2017-03-24T09:07:24.670Z,68.1
2017-03-24T09:08:27.103Z,68.1
2017-03-24T09:09:29.121Z,68
2017-03-24T09:10:31.026Z,67.8
2017-03-24T09:11:32.875Z,67.7
2017-03-24T09:12:34.720Z,67.5
2017-03-24T09:13:36.827Z,67.2
2017-03-24T09:14:38.692Z,67.1
2017-03-24T09:15:40.545Z,67
2017-03-24T09:16:42.362Z,67
2017-03-24T09:17:44.729Z,66.8
2017-03-24T09:18:46.546Z,66.6
2017-03-24T09:19:48.508Z,66.6
2017-03-24T09:20:50.396Z,66.4
2017-03-24T09:21:52.639Z,66.4
2017-03-24T09:22:54.465Z,66.2
2017-03-24T09:23:56.298Z,66.1
2017-03-24T09:24:58.565Z,65.9
2017-03-24T09:26:00.636Z,65.8
2017-03-24T09:27:02.484Z,65.6
2017-03-24T09:28:04.318Z,65.6
2017-03-24T09:29:06.143Z,65.3
2017-03-24T09:30:07.962Z,65.1
2017-03-24T09:31:09.790Z,65.1
2017-03-24T09:32:11.947Z,65
2017-03-24T09:33:13.772Z,64.9
2017-03-24T09:34:15.598Z,64.8
2017-03-24T09:35:17.707Z,64.8
2017-03-24T09:36:19.736Z,64.6
2017-03-24T09:37:21.562Z,64.6
2017-03-24T09:38:23.431Z,64.4
2017-03-24T09:39:25.339Z,64.2
2017-03-24T09:40:27.170Z,64.1
2017-03-24T09:41:29.006Z,63.9
2017-03-24T09:42:30.843Z,63.8
2017-03-24T09:43:33.087Z,63.8
2017-03-24T09:44:35.259Z,63.6
2017-03-24T09:45:37.082Z,63.4
2017-03-24T09:46:38.927Z,63.1
2017-03-24T09:47:40.770Z,63
2017-03-24T09:48:43.122Z,63
2017-03-24T09:49:44.946Z,63
2017-03-24T09:50:46.768Z,62.9
2017-03-24T09:51:48.588Z,62.9
2017-03-24T09:52:50.755Z,62.9
2017-03-24T09:53:52.923Z,62.7
2017-03-24T09:54:54.809Z,62.8
2017-03-24T09:55:56.633Z,62.7
2017-03-24T09:56:58.471Z,62.7
2017-03-24T09:58:00.288Z,62.5
2017-03-24T09:59:02.114Z,62.4
2017-03-24T10:00:03.940Z,62.3
2017-03-24T10:01:06.130Z,62.2
2017-03-24T10:02:07.964Z,62
2017-03-24T10:03:09.800Z,62
2017-03-24T10:04:11.994Z,62
2017-03-24T10:05:13.813Z,61.8
2017-03-24T10:06:17.252Z,61.8
2017-03-24T10:07:21.060Z,61.7
2017-03-24T10:08:22.995Z,61.7
2017-03-24T10:09:26.719Z,61.6
2017-03-24T10:10:28.992Z,61.5
2017-03-24T10:11:30.805Z,61.5
2017-03-24T10:12:32.627Z,61.5
2017-03-24T10:13:34.450Z,61.4
2017-03-24T10:14:36.423Z,61.4
2017-03-24T10:15:38.574Z,61.4
2017-03-24T10:16:40.402Z,61.3
2017-03-24T10:17:42.255Z,61.2
2017-03-24T10:18:44.072Z,61
2017-03-24T10:19:46.049Z,60.8
2017-03-24T10:20:47.888Z,60.7
2017-03-24T10:21:50.052Z,60.5
2017-03-24T10:22:51.882Z,60.5
2017-03-24T10:23:53.705Z,60.3
2017-03-24T10:24:55.527Z,60.3
2017-03-24T10:25:57.998Z,60.1
2017-03-24T10:26:59.812Z,60
2017-03-24T10:28:01.652Z,60
2017-03-24T10:29:03.474Z,59.8
2017-03-24T10:30:05.982Z,59.6
2017-03-24T10:31:07.806Z,59.5
2017-03-24T10:32:09.643Z,59.3
2017-03-24T10:33:11.537Z,59
2017-03-24T10:34:13.354Z,59
2017-03-24T10:35:15.674Z,59.1
2017-03-24T10:36:17.495Z,59
2017-03-24T10:37:19.316Z,58.8
2017-03-24T10:38:21.189Z,58.6
2017-03-24T10:39:23.011Z,58.6
2017-03-24T10:40:24.839Z,58.5
2017-03-24T10:41:26.658Z,58.4
2017-03-24T10:42:28.499Z,58.3
2017-03-24T10:43:30.690Z,58.3
2017-03-24T10:44:32.515Z,58.4
2017-03-24T10:45:34.694Z,58.3
2017-03-24T10:46:36.517Z,58.2
2017-03-24T10:47:46.901Z,58.3
2017-03-24T10:48:53.345Z,58.1
2017-03-24T10:49:55.183Z,58
2017-03-24T10:50:57.003Z,58
2017-03-24T10:51:58.824Z,57.8
2017-03-24T10:53:00.699Z,57.6
2017-03-24T10:54:02.541Z,57.5
2017-03-24T10:55:04.372Z,57.3
2017-03-24T10:56:06.191Z,57.1
2017-03-24T10:57:08.015Z,56.9
2017-03-24T10:58:09.847Z,56.7
2017-03-24T10:59:11.679Z,56.6
2017-03-24T11:00:13.498Z,56.6
2017-03-24T11:01:15.329Z,56.4
2017-03-24T11:02:17.153Z,56.1
2017-03-24T11:03:18.981Z,56.2
2017-03-24T11:04:20.809Z,56.2
2017-03-24T11:05:22.632Z,56.2
2017-03-24T11:06:24.453Z,56.2
2017-03-24T11:07:26.279Z,56.2
2017-03-24T11:08:28.112Z,56.2
2017-03-24T11:09:29.944Z,56.2
2017-03-24T11:10:31.771Z,56.1
2017-03-24T11:11:33.602Z,56
2017-03-24T11:12:35.433Z,55.7
2017-03-24T11:13:37.256Z,55.6
2017-03-24T11:14:39.505Z,55.5
2017-03-24T11:15:41.327Z,55.4
2017-03-24T11:16:43.159Z,55.3
2017-03-24T11:17:45.003Z,55.3
2017-03-24T11:18:46.830Z,55
2017-03-24T11:19:48.656Z,55
2017-03-24T11:20:50.479Z,54.8
2017-03-24T11:21:52.317Z,54.6
2017-03-24T11:22:54.144Z,54.6
2017-03-24T11:23:56.262Z,54.7
2017-03-24T11:24:58.086Z,54.7
2017-03-24T11:25:59.918Z,54.8
2017-03-24T11:27:01.754Z,54.8
2017-03-24T11:28:03.929Z,54.8
2017-03-24T11:29:06.175Z,54.7
2017-03-24T11:30:08.006Z,54.7
2017-03-24T11:31:09.837Z,54.7
2017-03-24T11:32:11.714Z,54.7
2017-03-24T11:33:13.538Z,54.6
2017-03-24T11:34:15.378Z,54.4
2017-03-24T11:35:17.199Z,54.2
2017-03-24T11:36:19.036Z,54.2
2017-03-24T11:37:20.854Z,54
2017-03-24T11:38:22.682Z,53.8
2017-03-24T11:39:24.502Z,53.8
2017-03-24T11:40:26.328Z,53.7
2017-03-24T11:41:28.168Z,53.8
2017-03-24T11:42:29.996Z,53.9
2017-03-24T11:43:31.830Z,54
2017-03-24T11:44:33.655Z,54
2017-03-24T11:45:35.483Z,53.9
2017-03-24T11:46:37.739Z,53.9
2017-03-24T11:47:39.563Z,53.8
2017-03-24T11:48:41.381Z,53.6
2017-03-24T11:49:43.215Z,53.5
2017-03-24T11:50:45.041Z,53.4
2017-03-24T11:51:46.871Z,53.2
2017-03-24T11:52:48.710Z,53.1
2017-03-24T11:53:50.545Z,53
2017-03-24T11:54:52.378Z,52.8
2017-03-24T11:55:54.614Z,52.7
2017-03-24T11:56:56.428Z,52.6
2017-03-24T11:57:58.265Z,52.4
2017-03-24T11:59:00.461Z,52.3
2017-03-24T12:00:02.621Z,52.3
2017-03-24T12:01:04.792Z,52.3
2017-03-24T12:02:06.637Z,52.2
2017-03-24T12:03:08.473Z,52.1
2017-03-24T12:04:10.633Z,52
2017-03-24T12:05:12.459Z,51.9
2017-03-24T12:06:14.635Z,51.7
2017-03-24T12:07:16.459Z,51.6
2017-03-24T12:08:18.286Z,51.6
2017-03-24T12:09:20.111Z,51.6
2017-03-24T12:10:21.931Z,51.5
2017-03-24T12:11:24.177Z,51.5
2017-03-24T12:12:26.335Z,51.4
2017-03-24T12:13:28.167Z,51.3
2017-03-24T12:14:29.997Z,51.2
2017-03-24T12:15:31.828Z,51.2
2017-03-24T12:16:33.657Z,51.2
2017-03-24T12:17:35.810Z,51.4
2017-03-24T12:18:37.639Z,51.3
2017-03-24T12:19:39.801Z,51.3
2017-03-24T12:20:41.634Z,51.2
2017-03-24T12:21:43.481Z,51.2
2017-03-24T12:22:45.313Z,51.2
2017-03-24T12:23:47.142Z,50.9
2017-03-24T12:24:49.277Z,50.8
2017-03-24T12:25:51.120Z,50.6
2017-03-24T12:26:52.960Z,50.8
2017-03-24T12:27:54.790Z,50.6
2017-03-24T12:28:56.621Z,50.4
2017-03-24T12:29:58.446Z,50.3
2017-03-24T12:31:00.267Z,50.4
2017-03-24T12:32:02.102Z,50.3
2017-03-24T12:33:03.923Z,50.1
2017-03-24T12:34:06.134Z,50
2017-03-24T12:35:07.961Z,49.9
2017-03-24T12:36:09.788Z,49.8
2017-03-24T12:37:11.612Z,49.8
2017-03-24T12:38:13.465Z,49.7
2017-03-24T12:39:15.284Z,49.7
2017-03-24T12:40:17.122Z,49.7
2017-03-24T12:41:18.947Z,49.6
2017-03-24T12:42:20.803Z,49.6
2017-03-24T12:43:22.629Z,49.4
2017-03-24T12:44:24.464Z,49.4
2017-03-24T12:45:26.289Z,49.4
2017-03-24T12:46:28.113Z,49.3
2017-03-24T12:47:29.948Z,49.2
2017-03-24T12:48:31.775Z,49.2
2017-03-24T12:49:33.951Z,48.9
2017-03-24T12:50:35.783Z,49
2017-03-24T12:51:37.611Z,49
2017-03-24T12:52:39.452Z,49.1
2017-03-24T12:53:41.679Z,49.2
2017-03-24T12:54:43.506Z,49.2
2017-03-24T12:55:45.333Z,49.2
2017-03-24T12:56:47.159Z,49.2
2017-03-24T12:57:48.994Z,49.2
2017-03-24T12:58:51.152Z,49.1
2017-03-24T12:59:53.271Z,49
2017-03-24T13:00:55.434Z,49
2017-03-24T13:01:57.305Z,49
2017-03-24T13:02:59.143Z,49
2017-03-24T13:04:00.978Z,49.1
2017-03-24T13:05:02.815Z,49
2017-03-24T13:06:04.640Z,48.9
2017-03-24T13:07:06.479Z,48.9
2017-03-24T13:08:08.310Z,48.9
2017-03-24T13:09:10.129Z,48.9
2017-03-24T13:10:12.618Z,48.9
2017-03-24T13:11:14.448Z,48.9
2017-03-24T13:12:16.304Z,48.8
2017-03-24T13:13:18.121Z,48.8
2017-03-24T13:14:19.943Z,48.8
2017-03-24T13:15:21.778Z,48.7
2017-03-24T13:16:24.357Z,48.5
2017-03-24T13:17:26.185Z,48.4
2017-03-24T13:18:28.013Z,48.3
2017-03-24T13:19:29.892Z,48.3
2017-03-24T13:20:31.727Z,48.4
2017-03-24T13:21:33.898Z,48.4
2017-03-24T13:22:35.722Z,48.4
2017-03-24T13:23:37.553Z,48.3
2017-03-24T13:24:39.385Z,48.1
2017-03-24T13:25:41.209Z,47.9
2017-03-24T13:26:43.038Z,47.9
2017-03-24T13:27:45.428Z,47.7
2017-03-24T13:28:47.262Z,47.7
2017-03-24T13:29:49.083Z,47.7
2017-03-24T13:30:50.909Z,47.7
2017-03-24T13:31:52.737Z,47.6
2017-03-24T13:32:54.575Z,47.5
2017-03-24T13:33:56.398Z,47.5
2017-03-24T13:34:58.226Z,47.3
2017-03-24T13:36:00.480Z,47.3
2017-03-24T13:37:02.547Z,47.3
2017-03-24T13:38:04.370Z,47.3
2017-03-24T13:39:06.195Z,47.4
2017-03-24T13:40:08.025Z,47.4
2017-03-24T13:41:09.853Z,47.4
2017-03-24T13:42:12.573Z,47.1
2017-03-24T13:43:14.399Z,47.1
2017-03-24T13:44:16.236Z,47.1
2017-03-24T13:45:18.064Z,47
2017-03-24T13:46:20.642Z,46.9
2017-03-24T13:47:22.473Z,46.8
2017-03-24T13:48:24.315Z,46.7
2017-03-24T13:49:26.141Z,46.6
2017-03-24T13:50:27.969Z,46.5
2017-03-24T13:51:29.792Z,46.6